createdAt,value
2019-04-16T00:01:11.282Z,42.90
2019-04-16T00:06:36.801Z,39.70
2019-04-16T00:12:06.786Z,43.30
2019-04-16T00:17:13.151Z,43.60
2019-04-16T00:22:31.073Z,43.80
2019-04-16T00:27:35.346Z,42.70
2019-04-16T00:32:42.564Z,43.70
2019-04-16T00:37:51.379Z,40.80
2019-04-16T00:42:53.947Z,42.50
2019-04-16T00:47:58.953Z,44.30
2019-04-16T00:53:07.617Z,44.70
2019-04-16T00:58:10.244Z,44.70
2019-04-16T01:03:15.452Z,44.10
2019-04-16T01:08:21.382Z,43.20
2019-04-16T01:13:26.338Z,45.20
2019-04-16T01:18:31.350Z,43.50
2019-04-16T01:23:36.374Z,45.50
2019-04-16T01:28:48.064Z,47.00
2019-04-16T01:34:10.426Z,45.80
2019-04-16T01:39:18.242Z,44.30
2019-04-16T01:44:23.453Z,44.60
2019-04-16T01:49:28.510Z,44.30
2019-04-16T01:54:33.332Z,45.00
2019-04-16T01:59:38.384Z,43.40
2019-04-16T02:04:43.331Z,43.00
2019-04-16T02:09:49.244Z,44.60
2019-04-16T02:14:54.134Z,43.70
2019-04-16T02:20:02.000Z,45.00
2019-04-16T02:25:06.230Z,45.60
2019-04-16T02:30:11.322Z,46.30
2019-04-16T02:35:16.172Z,46.20
2019-04-16T02:40:20.964Z,46.90
2019-04-16T02:45:25.128Z,46.90
2019-04-16T02:51:06.893Z,45.60
2019-04-16T02:56:31.240Z,45.80
2019-04-16T03:01:49.340Z,47.40
2019-04-16T03:06:54.232Z,45.70
2019-04-16T03:11:58.349Z,48.10
2019-04-16T03:17:18.660Z,46.90
2019-04-16T03:22:22.897Z,48.00
2019-04-16T03:27:27.234Z,48.00
2019-04-16T03:32:35.392Z,49.10
2019-04-16T03:37:40.115Z,48.40
2019-04-16T03:42:45.162Z,49.20
2019-04-16T03:47:51.424Z,48.90
2019-04-16T03:52:56.804Z,48.40
2019-04-16T03:58:05.145Z,47.90
2019-04-16T04:03:09.953Z,46.50
2019-04-16T04:08:17.769Z,47.00
2019-04-16T04:13:23.946Z,46.20
2019-04-16T04:18:29.082Z,47.30
2019-04-16T04:23:34.232Z,49.20
2019-04-16T04:28:39.705Z,48.90
2019-04-16T04:33:45.001Z,49.90
2019-04-16T04:38:49.972Z,49.60
2019-04-16T04:43:54.822Z,49.60
2019-04-16T04:49:00.304Z,50.60
2019-04-16T04:54:06.788Z,47.70
2019-04-16T04:59:12.217Z,50.30
2019-04-16T05:04:37.834Z,51.00
2019-04-16T05:09:42.711Z,51.30
2019-04-16T05:14:57.530Z,48.20
2019-04-16T05:20:01.418Z,49.30
2019-04-16T05:25:09.053Z,50.30
2019-04-16T05:30:14.495Z,51.90
2019-04-16T05:35:19.867Z,53.40
2019-04-16T05:40:28.169Z,54.10
2019-04-16T05:45:34.569Z,53.20
2019-04-16T05:50:40.637Z,54.40
2019-04-16T05:56:09.447Z,49.10
2019-04-16T06:01:42.460Z,49.50
2019-04-16T06:06:46.012Z,51.50
2019-04-16T06:11:50.743Z,50.40
2019-04-16T06:17:04.088Z,54.40
2019-04-16T06:22:43.604Z,52.10
2019-04-16T06:28:19.134Z,49.50
2019-04-16T06:33:31.092Z,49.80
2019-04-16T06:38:45.271Z,46.80
2019-04-16T06:43:52.138Z,44.70
2019-04-16T06:49:17.642Z,44.00
2019-04-16T06:54:41.105Z,45.60
2019-04-16T07:00:02.518Z,43.90
2019-04-16T07:05:33.030Z,44.30
2019-04-16T07:10:48.310Z,42.20
2019-04-16T07:15:56.988Z,47.60
2019-04-16T07:21:02.327Z,44.10
2019-04-16T07:26:07.373Z,40.60
2019-04-16T07:31:32.699Z,39.10
2019-04-16T07:36:31.977Z,38.20
2019-04-16T07:42:07.787Z,36.10
2019-04-16T07:47:21.846Z,37.10
2019-04-16T07:52:51.271Z,37.30
2019-04-16T07:57:56.364Z,37.40
2019-04-16T08:03:02.189Z,33.50
2019-04-16T08:08:08.431Z,33.50
2019-04-16T08:13:22.593Z,33.90
2019-04-16T08:18:28.049Z,33.20
2019-04-16T08:23:42.515Z,34.30
2019-04-16T08:28:47.528Z,32.30
2019-04-16T08:33:52.788Z,31.50
2019-04-16T08:38:57.974Z,32.20
2019-04-16T08:44:04.397Z,32.20
2019-04-16T08:49:09.886Z,32.40
2019-04-16T08:54:17.827Z,30.70
2019-04-16T08:59:24.788Z,30.70
2019-04-16T09:04:34.217Z,30.80
2019-04-16T09:09:56.990Z,29.20
2019-04-16T09:15:00.015Z,28.80
2019-04-16T09:20:09.840Z,28.90
2019-04-16T09:25:34.304Z,30.30
2019-04-16T09:30:56.657Z,28.50
2019-04-16T09:36:20.030Z,29.40
2019-04-16T09:41:34.868Z,29.20
2019-04-16T09:46:50.901Z,29.50
2019-04-16T09:51:45.775Z,30.60
2019-04-16T09:56:50.416Z,27.80
2019-04-16T10:02:02.540Z,26.90
2019-04-16T10:07:06.919Z,30.60
2019-04-16T10:12:11.415Z,26.50
2019-04-16T10:17:15.805Z,28.90
2019-04-16T10:22:19.235Z,28.10
2019-04-16T10:27:36.937Z,25.30
2019-04-16T10:32:42.122Z,27.80
2019-04-16T10:37:47.396Z,27.50
2019-04-16T10:43:11.249Z,28.20
2019-04-16T10:48:25.420Z,27.10
2019-04-16T10:53:50.540Z,26.60
2019-04-16T10:59:08.992Z,25.90
2019-04-16T11:04:43.006Z,27.00
2019-04-16T11:09:45.638Z,25.20
2019-04-16T11:14:51.804Z,27.70
2019-04-16T11:19:59.917Z,27.00
2019-04-16T11:25:05.869Z,27.20
2019-04-16T11:30:22.421Z,25.30
2019-04-16T11:35:28.671Z,24.40
2019-04-16T11:40:33.974Z,26.50
2019-04-16T11:45:39.166Z,26.10
2019-04-16T11:50:43.913Z,26.60
2019-04-16T11:55:49.417Z,25.30
2019-04-16T12:01:08.992Z,26.20
2019-04-16T12:06:29.479Z,25.30
2019-04-16T12:11:48.190Z,25.10
2019-04-16T12:16:57.871Z,26.80
2019-04-16T12:22:31.474Z,25.60
2019-04-16T12:27:57.926Z,23.80
2019-04-16T12:33:32.126Z,26.10
2019-04-16T12:38:53.955Z,25.60
2019-04-16T12:44:25.345Z,26.00
2019-04-16T12:50:03.784Z,25.90
2019-04-16T13:01:53.837Z,26.00
2019-04-16T13:07:08.843Z,27.80
2019-04-16T13:12:42.683Z,26.50
2019-04-16T13:18:21.599Z,24.60
2019-04-16T13:23:36.240Z,25.00
2019-04-16T13:28:41.608Z,25.80
2019-04-16T13:33:50.665Z,26.90
2019-04-16T13:39:06.485Z,25.60
2019-04-16T13:44:17.101Z,25.10
2019-04-16T13:49:39.113Z,26.80
2019-04-16T13:55:12.898Z,25.90
2019-04-16T14:00:29.857Z,25.20
2019-04-16T14:05:37.485Z,25.00
2019-04-16T14:10:38.860Z,26.60
2019-04-16T14:15:44.844Z,26.20
2019-04-16T14:20:49.627Z,26.60
2019-04-16T14:25:55.378Z,28.70
2019-04-16T14:31:01.295Z,26.10
2019-04-16T14:36:07.356Z,26.90
2019-04-16T14:41:15.916Z,26.20
2019-04-16T14:46:19.926Z,25.90
2019-04-16T14:51:24.164Z,26.60
2019-04-16T14:56:43.591Z,26.30
2019-04-16T15:02:15.817Z,25.90
2019-04-16T15:07:33.081Z,26.70
2019-04-16T15:13:02.097Z,25.90
2019-04-16T15:18:44.818Z,25.80
2019-04-16T15:24:16.391Z,28.00
2019-04-16T15:29:52.572Z,26.50
2019-04-16T15:34:59.358Z,27.50
2019-04-16T15:40:10.647Z,27.40
2019-04-16T15:45:32.823Z,27.70
2019-04-16T15:51:07.752Z,26.70
2019-04-16T15:56:40.439Z,26.50
2019-04-16T16:02:04.006Z,26.60
2019-04-16T16:07:25.711Z,26.40
2019-04-16T16:12:32.278Z,27.60
2019-04-16T16:17:37.505Z,28.20
2019-04-16T16:22:42.964Z,26.70
2019-04-16T16:27:48.357Z,26.90
2019-04-16T16:32:53.295Z,28.00
2019-04-16T16:37:58.814Z,28.50
2019-04-16T16:43:08.199Z,28.90
2019-04-16T16:48:11.895Z,28.90
2019-04-16T16:53:47.341Z,29.40
2019-04-16T16:59:03.619Z,29.70
2019-04-16T17:04:22.989Z,29.20
2019-04-16T17:09:31.569Z,29.90
2019-04-16T17:14:37.976Z,30.40
2019-04-16T17:19:43.517Z,30.50
2019-04-16T17:24:49.166Z,30.30
2019-04-16T17:29:54.341Z,30.90
2019-04-16T17:34:59.712Z,31.50
2019-04-16T17:40:17.014Z,31.60
2019-04-16T17:45:57.206Z,31.80
2019-04-16T17:51:19.782Z,31.60
2019-04-16T17:56:43.301Z,31.80
2019-04-16T18:02:25.079Z,33.10
2019-04-16T18:07:48.531Z,32.90
2019-04-16T18:12:59.978Z,34.00
2019-04-16T18:18:16.958Z,35.20
2019-04-16T18:23:35.487Z,35.70
2019-04-16T18:28:55.222Z,36.20
2019-04-16T18:34:26.574Z,36.80
2019-04-16T18:39:42.189Z,36.90
2019-04-16T18:45:04.437Z,38.20
2019-04-16T18:50:15.118Z,38.40
2019-04-16T18:55:19.915Z,38.70
2019-04-16T19:00:37.932Z,39.30
2019-04-16T19:05:42.850Z,38.70
2019-04-16T19:10:48.384Z,38.30
2019-04-16T19:15:53.504Z,39.80
2019-04-16T19:20:58.927Z,41.40
2019-04-16T19:26:04.686Z,42.20
2019-04-16T19:31:09.859Z,43.40
2019-04-16T19:36:14.947Z,41.50
2019-04-16T19:41:23.314Z,44.10
2019-04-16T19:46:25.552Z,41.50
2019-04-16T19:51:30.081Z,40.10
2019-04-16T19:56:34.507Z,42.00
2019-04-16T20:01:39.319Z,43.00
2019-04-16T20:06:43.774Z,43.60
2019-04-16T20:11:48.829Z,45.80
2019-04-16T20:16:53.241Z,46.90
2019-04-16T20:21:57.623Z,47.40
2019-04-16T20:27:04.909Z,48.30
2019-04-16T20:32:10.184Z,49.20
2019-04-16T20:37:15.569Z,49.10
2019-04-16T20:42:21.154Z,49.20
2019-04-16T20:47:26.916Z,49.40
2019-04-16T20:52:34.189Z,49.30
2019-04-16T20:57:39.228Z,49.30
2019-04-16T21:02:44.778Z,50.00
2019-04-16T21:07:49.724Z,50.30
2019-04-16T21:12:55.562Z,51.70
2019-04-16T21:18:02.110Z,54.00
2019-04-16T21:23:07.274Z,56.50
2019-04-16T21:28:26.640Z,56.60
2019-04-16T21:33:46.128Z,58.00
2019-04-16T21:39:07.836Z,58.50
2019-04-16T21:44:14.608Z,60.50
2019-04-16T21:49:19.934Z,60.80
2019-04-16T21:54:26.892Z,60.00
2019-04-16T21:59:32.396Z,59.30
2019-04-16T22:04:38.176Z,59.90
2019-04-16T22:09:43.440Z,60.80
2019-04-16T22:14:50.951Z,61.90
2019-04-16T22:20:01.592Z,60.70
2019-04-16T22:25:03.588Z,60.20
2019-04-16T22:30:08.861Z,61.30
2019-04-16T22:35:14.416Z,63.10
2019-04-16T22:40:37.469Z,63.00
2019-04-16T22:45:56.887Z,63.80
2019-04-16T22:51:01.863Z,64.40
2019-04-16T22:56:05.875Z,64.30
2019-04-16T23:01:10.095Z,65.40
2019-04-16T23:06:14.262Z,66.70
2019-04-16T23:11:23.366Z,68.40
2019-04-16T23:16:23.960Z,68.40
2019-04-16T23:21:28.131Z,69.90
2019-04-16T23:26:33.293Z,70.90
2019-04-16T23:31:37.699Z,72.50
2019-04-16T23:36:40.984Z,71.60
2019-04-16T23:41:47.955Z,71.80
2019-04-16T23:47:11.918Z,70.60
2019-04-16T23:52:35.335Z,71.70
2019-04-16T23:57:59.144Z,71.30
